Airfield :
LOGIN :

Register | Disclaimer

   EN    FR    IT 

 










Legend :    VFR   Marginal VFR   IFR   Intensive IFR   Very Intensive IFR
Visi :
Ceiling :
>= 8 km
>= 3000ft
5 to 8 km
1000 to 3000 ft
1500m to 5 km
500 to 1000 ft
800 to 1500m
200 to 500 ft
< 800m
< 200 ft
Symbols :   Thunderstorms  Fog  Heavy snow  Heavy precipitations  Wind > 20 kt
SIGMETs :     Misc.  Thunderstorms  Icing  Turbulence  Mountain Waves  Volcanic Ashes






- Airport Elevation : 277 ft
- IATA code : JER


EGJJ - Jersey

CURRENT METAR :
  • 220120Z AUTO 04014G24KT 9999 BKN009/// OVC011/// 12/12 Q1014 REDZ

EXPIRED METARs :
  • 220050Z AUTO 04015KT 010V080 9999 FEW009/// OVC010/// 12/11 Q1014 RERA
  • 220020Z AUTO 04014G24KT 9999 FEW007/// BKN009/// OVC010/// 12/11 Q1014 RERA
  • 212350Z AUTO 04013KT 9999 -DZ SCT005/// BKN008/// OVC010/// 12/12 Q1014 RESHRA
  • 212320Z AUTO 04014G24KT 020V080 6000 -DZ SCT007/// BKN008/// BKN009/// 13/12 Q1014 RESHRA
  • 212250Z AUTO 05012G23KT 010V080 9999 OVC008/// 13/12 Q1013 REDZ

TAF TAF EGJJ
Valid from the 22 at 00:00 until the 22 at 09:00 UTC


212303Z 2200/2209 05015KT 9999 FEW007 OVC011
TEMPO 2200/2209 03019G30KT 7000 -DZ BKN006
PROB40
TEMPO 2200/2209 2000 RADZ BKN003
ATIS : +44 1534 498 073



MET'MAP, your aeronautical weather chart ! - Copyright ORBIFLY December 2007 - Disclaimer

ORBIFLY MET'MAP TEAM :

Programming & Development : Alexandra Zaïnal
Concept & original design : Baudouin d'Aumeries
Assistance for programming : Marc-Olivier Méhu
Technical & hardware support : Manuel Goepfert

Contact : metmap@orbifly.com




SOURCES & CREDITS :

   NOAA